Aérodrome :
LOGIN :

S'inscrire | Disclaimer

   EN    FR    IT 

 










Légende :    VFR   VFR Marginal   IFR   IFR Intensif   IFR Très Intensif
Visi : 
Plafond : 
>= 8 km
>= 3000ft
5 à 8 km
1000 à 3000 ft
1500m à 5 km
500 à 1000 ft
800 à 1500m
200 à 500 ft
< 800m
< 200 ft
Symboles :   Orages  Brouillard  Fortes neiges  Fortes précipitations  Vent > 20 kt
SIGMETs :   Divers  Orages  Givrage  Turbulence  Onde Orograph.  Cendres Volcan.






- Altitude de l'aérodrome : 287 ft


LFRL - Lanveoc Poulmic

DERNIER METAR :
  • 030800Z AUTO 29004KT CAVOK 16/12 Q1010 TEMPO 4000 SHRA SCT025TCU

METARs EXPIRÉS :
  • 030730Z AUTO 31006KT CAVOK 16/11 Q1010 TEMPO 4000 SHRA SCT025TCU
  • 030700Z AUTO 30004KT CAVOK 16/12 Q1011 NOSIG
  • 030630Z AUTO 32003KT CAVOK 15/13 Q1011 NOSIG
  • 030600Z AUTO 34002KT CAVOK 14/13 Q1011 NOSIG
  • 030530Z AUTO 01002KT CAVOK 13/13 Q1011 NOSIG

TAF TAF LFRL
Valide du 03 à 06h jusqu'au 04 à 06h UTC


030500Z 0306/0406 34005KT CAVOK
TEMPO 0309/0406 34010G20KT 4000 SHRA SCT025TCU
PROB30
TEMPO 0311/0315 2000 TSRA BKN014CB
BECMG 0315/0318 BKN010



MET'MAP, la Météo Aéronautique d'un coup d'oeil ! - Copyright ORBIFLY Décembre 2007 - Disclaimer

ORBIFLY MET'MAP TEAM :

Programmation & Développement : Alexandra Zaïnal
Sur une idée originale de : Baudouin d'Aumeries
Assistance à la programmation : Marc-Olivier Méhu
Soutien technique & logistique : Manuel Goepfert

Contact : metmap@orbifly.com




SOURCES & CREDITS :

   NOAA